Аэропорт: Черкассы. Черкассы

ICAO: UKKE

METAR:
2018/07/24 12:54
UKKE 241254Z 07002MPS 9999 SCT///CB 29/17 Q1005 R32/CLRD70
METAR:
Информация по данной станции не доступна